Time;durP1;ratioP1;P1;durP2;ratioP2;P2;SDS_P1;SDS_P2;PMS_P1;PMS_P2;Temp;Humidity;BMP_temperature;BMP_pressure;BME280_temperature;BME280_humidity;BME280_pressure;Samples;Min_cycle;Max_cycle;Signal;HPM_P1;HPM_P2
2021/05/28 00:01:56;;;;;;;1.17;0.10;;;13.20;99.90;;;12.49;78.94;100728.06;4930980;29;20067;-53
2021/05/28 00:04:22;;;;;;;0.90;0.10;;;13.10;99.90;;;12.41;78.81;100741.06;4930734;29;20530;-54
2021/05/28 00:06:48;;;;;;;0.20;0.10;;;13.00;99.90;;;12.46;78.25;100735.38;4930564;29;20047;-55
2021/05/28 00:09:14;;;;;;;1.80;0.00;;;13.00;99.90;;;12.72;75.26;100738.06;4930968;29;20087;-57
2021/05/28 00:11:40;;;;;;;0.43;0.00;;;13.20;99.90;;;13.23;70.86;100748.53;4930783;29;20481;-56
2021/05/28 00:14:06;;;;;;;1.75;0.32;;;13.50;99.90;;;13.36;69.61;100742.91;4930683;29;20090;-57
2021/05/28 00:16:33;;;;;;;1.95;0.10;;;13.80;99.90;;;12.96;72.88;100740.84;4930690;29;20114;-57
2021/05/28 00:18:59;;;;;;;1.60;0.10;;;13.60;99.90;;;12.81;73.82;100743.16;4930629;29;20039;-57
2021/05/28 00:21:25;;;;;;;0.85;0.00;;;13.40;99.90;;;12.80;73.64;100743.31;4930270;29;20032;-57
2021/05/28 00:23:51;;;;;;;1.27;0.10;;;13.40;99.90;;;12.77;73.88;100749.69;4930776;29;20031;-52
2021/05/28 00:26:17;;;;;;;0.40;0.00;;;13.30;99.90;;;12.52;75.38;100737.41;4930614;29;20467;-57
2021/05/28 00:28:48;;;;;;;1.40;0.00;;;13.20;99.90;;;13.25;68.03;100741.38;4930848;29;20036;-56
2021/05/28 00:31:15;;;;;;;1.63;0.00;;;13.40;99.90;;;13.13;70.32;100744.38;4913263;29;20054;-57
2021/05/28 00:33:41;;;;;;;0.57;0.08;;;13.60;99.90;;;12.76;73.41;100755.09;4930616;29;20032;-56
2021/05/28 00:36:07;;;;;;;1.10;0.28;;;13.40;99.90;;;12.56;74.89;100751.81;4930634;29;20556;-56
2021/05/28 00:38:33;;;;;;;0.47;0.10;;;13.20;99.90;;;12.68;72.45;100753.22;4930464;29;20044;-54
2021/05/28 00:40:59;;;;;;;0.40;0.00;;;13.10;99.90;;;12.89;69.79;100760.72;4931743;29;20036;-56
2021/05/28 00:43:25;;;;;;;0.30;0.10;;;13.20;99.90;;;12.61;72.07;100749.56;4949898;29;20058;-57
2021/05/28 00:45:51;;;;;;;1.48;0.10;;;13.20;99.90;;;12.41;74.49;100750.69;4953245;29;20041;-57
2021/05/28 00:48:17;;;;;;;0.30;0.00;;;13.00;99.90;;;12.81;69.65;100750.19;4935796;29;20046;-57
2021/05/28 00:50:43;;;;;;;0.30;0.00;;;13.10;99.90;;;12.93;69.22;100749.81;4953309;29;20031;-56
2021/05/28 00:53:09;;;;;;;0.30;0.00;;;13.40;99.90;;;13.29;65.54;100753.16;4953337;29;20471;-56
2021/05/28 00:55:35;;;;;;;0.20;0.10;;;13.60;99.90;;;13.48;63.65;100744.28;4952791;29;20071;-57
2021/05/28 00:58:02;;;;;;;3.50;0.10;;;13.90;99.90;;;13.32;64.25;100752.03;4953207;29;20039;-55
2021/05/28 01:00:29;;;;;;;1.25;0.00;;;13.80;99.90;;;13.37;64.23;100744.53;4951785;29;20035;-59
2021/05/28 01:02:56;;;;;;;2.38;0.00;;;13.80;99.90;;;13.17;64.86;100757.03;4952752;29;20628;-56
2021/05/28 01:05:22;;;;;;;1.95;0.00;;;13.60;99.90;;;13.45;63.50;100755.06;4953392;29;20023;-57
2021/05/28 01:07:48;;;;;;;0.15;0.00;;;13.90;99.90;;;13.57;61.95;100758.22;4953018;29;20451;-59
2021/05/28 01:10:15;;;;;;;0.10;0.00;;;13.90;99.90;;;13.96;58.89;100763.78;4952948;29;20031;-54
2021/05/28 01:12:44;;;;;;;1.20;0.00;;;14.20;98.10;;;14.11;57.76;100756.13;4927741;29;20154;-58
2021/05/28 01:15:11;;;;;;;0.17;0.00;;;14.40;96.40;;;14.23;57.17;100760.06;4933526;29;20650;-57
2021/05/28 01:17:37;;;;;;;0.73;0.00;;;14.60;95.00;;;14.22;56.22;100758.41;4933926;29;20040;-55
2021/05/28 01:20:06;;;;;;;0.17;0.00;;;14.60;93.10;;;14.43;55.44;100756.19;4916271;29;20515;-57
2021/05/28 01:22:33;;;;;;;0.00;0.00;;;14.80;92.50;;;14.19;57.06;100756.13;4933421;29;20050;-57
2021/05/28 01:25:00;;;;;;;1.35;0.00;;;14.70;93.00;;;14.06;56.94;100767.09;4933803;29;20252;-59
2021/05/28 01:27:30;;;;;;;0.08;0.00;;;14.60;93.00;;;14.01;56.05;100753.63;4932052;29;20036;-57
2021/05/28 01:29:57;;;;;;;1.05;0.00;;;14.50;92.80;;;14.17;56.13;100753.69;4933367;29;20177;-58
2021/05/28 01:32:23;;;;;;;0.65;0.00;;;14.60;91.80;;;14.07;56.85;100757.41;4933174;29;20050;-55
2021/05/28 01:34:50;;;;;;;0.73;0.03;;;14.60;92.30;;;14.00;57.05;100764.28;4933238;29;20028;-54
2021/05/28 01:37:17;;;;;;;0.10;0.00;;;14.50;92.20;;;14.05;56.44;100769.84;4931969;29;20513;-56
2021/05/28 01:39:49;;;;;;;0.10;0.00;;;14.50;91.50;;;14.03;56.36;100775.25;4931679;29;20112;-57
2021/05/28 01:42:17;;;;;;;0.20;0.00;;;14.50;91.60;;;14.04;56.35;100778.69;4932837;29;20051;-57
2021/05/28 01:44:46;;;;;;;0.10;0.00;;;14.50;91.10;;;14.13;54.97;100778.56;4931790;29;20118;-57
2021/05/28 01:47:13;;;;;;;0.25;0.00;;;14.60;90.40;;;14.23;55.56;100768.75;4932976;29;20036;-53
2021/05/28 01:49:40;;;;;;;0.40;0.10;;;14.70;90.70;;;14.06;56.46;100782.81;4932716;29;20034;-55
2021/05/28 01:52:08;;;;;;;0.57;0.00;;;14.60;91.00;;;13.99;56.20;100786.22;4914823;29;20514;-58
2021/05/28 01:54:40;;;;;;;0.43;0.00;;;14.50;90.90;;;13.93;56.57;100779.81;4931421;29;20095;-52
2021/05/28 01:57:11;;;;;;;0.45;0.00;;;14.40;91.30;;;14.01;55.32;100774.59;4932701;29;20039;-56
2021/05/28 01:59:37;;;;;;;0.20;0.00;;;14.50;90.60;;;14.11;54.81;100775.28;4932807;29;20040;-57
2021/05/28 02:02:04;;;;;;;0.98;0.00;;;14.50;89.90;;;14.18;55.04;100775.44;4932642;29;20578;-55
2021/05/28 02:04:30;;;;;;;0.75;0.10;;;14.60;90.10;;;13.98;56.33;100781.94;4932553;29;20023;-59
2021/05/28 02:06:56;;;;;;;1.80;0.10;;;14.50;90.60;;;13.49;59.84;100785.19;4932756;29;20035;-57
2021/05/28 02:09:22;;;;;;;0.20;0.10;;;14.20;93.20;;;13.16;62.12;100789.41;4932712;29;20486;-61
2021/05/28 02:11:48;;;;;;;0.93;0.03;;;13.90;95.10;;;12.62;65.73;100793.03;4932788;29;20063;-55
2021/05/28 02:14:15;;;;;;;0.30;0.20;;;13.50;99.60;;;12.47;65.94;100794.50;4932494;29;20024;-56
2021/05/28 02:16:41;;;;;;;2.63;0.10;;;13.20;99.90;;;12.35;66.45;100793.91;4931484;29;20123;-56
2021/05/28 02:19:09;;;;;;;1.35;0.00;;;13.00;99.90;;;12.71;63.41;100797.38;4932536;29;20044;-54
2021/05/28 02:21:36;;;;;;;4.30;0.00;;;13.00;99.90;;;12.75;64.03;100793.47;4915118;29;20039;-57
2021/05/28 02:24:04;;;;;;;0.55;0.00;;;13.30;99.90;;;12.37;65.97;100785.91;4932294;29;20047;-59
2021/05/28 02:26:30;;;;;;;0.15;0.03;;;13.10;99.90;;;12.60;63.58;100787.13;4932403;29;20777;-57
2021/05/28 02:28:56;;;;;;;0.38;0.00;;;13.10;99.90;;;12.96;61.40;100788.72;4932334;29;20123;-59
2021/05/28 02:31:22;;;;;;;0.30;0.30;;;13.40;98.90;;;12.93;62.20;100793.44;4932352;29;20142;-60
2021/05/28 02:33:48;;;;;;;0.20;0.00;;;13.50;98.90;;;12.38;66.44;100782.34;4932310;29;20027;-54
2021/05/28 02:36:14;;;;;;;0.55;0.10;;;13.10;99.90;;;12.07;68.61;100792.31;4932098;29;20043;-54
2021/05/28 02:38:40;;;;;;;0.60;0.22;;;12.80;99.90;;;11.85;70.09;100785.69;4932324;29;20070;-57
2021/05/28 02:41:06;;;;;;;1.00;0.00;;;12.60;99.90;;;11.67;70.76;100800.44;4931922;29;20203;-56
2021/05/28 02:43:34;;;;;;;0.25;0.00;;;12.30;99.90;;;11.52;72.38;100789.63;4931715;29;20583;-52
2021/05/28 02:48:35;;;;;;;0.47;0.10;;;12.00;99.90;;;11.18;73.89;100797.16;4981061;23;20058;-56
2021/05/28 02:51:01;;;;;;;0.20;0.10;;;11.90;99.90;;;11.07;74.63;100792.91;4970040;28;20041;-57
2021/05/28 02:53:33;;;;;;;1.45;0.10;;;11.70;99.90;;;10.96;74.96;100793.88;4970121;28;20046;-52
2021/05/28 02:56:05;;;;;;;2.15;0.10;;;11.60;99.90;;;10.91;75.39;100800.47;4952860;28;20034;-52
2021/05/28 02:58:33;;;;;;;0.40;0.00;;;11.60;99.90;;;10.79;76.10;100802.41;4988498;28;20459;-57
2021/05/28 03:00:59;;;;;;;0.30;0.00;;;11.40;99.90;;;10.72;76.59;100813.53;4971929;28;20071;-54
2021/05/28 03:03:25;;;;;;;1.88;0.10;;;11.30;99.90;;;10.78;76.66;100815.59;4989551;28;20114;-55
2021/05/28 03:05:52;;;;;;;0.80;0.08;;;11.30;99.90;;;10.63;77.13;100817.78;4989607;28;20097;-56
2021/05/28 03:08:18;;;;;;;2.97;0.10;;;11.30;99.90;;;10.58;77.36;100814.75;4989221;28;20053;-56
2021/05/28 03:10:45;;;;;;;1.80;0.10;;;11.20;99.90;;;10.56;77.57;100814.88;4989717;28;20036;-57
2021/05/28 03:13:12;;;;;;;0.13;0.00;;;11.20;99.90;;;10.57;77.61;100820.91;4971696;28;20404;-59
2021/05/28 03:15:38;;;;;;;3.20;0.10;;;11.20;99.90;;;10.54;78.26;100829.00;4989381;28;20026;-54
2021/05/28 03:18:05;;;;;;;1.35;0.10;;;11.10;99.90;;;10.48;78.77;100837.34;4989443;28;20081;-54
2021/05/28 03:20:35;;;;;;;1.52;0.10;;;11.10;99.90;;;10.39;79.09;100841.63;4971643;28;20054;-51
2021/05/28 03:23:03;;;;;;;0.40;0.10;;;11.10;99.90;;;10.38;79.64;100844.34;4989423;28;20053;-55
2021/05/28 03:25:30;;;;;;;3.13;1.30;;;11.00;99.90;;;10.38;80.12;100841.75;4972025;28;20443;-59
2021/05/28 03:27:56;;;;;;;1.98;0.10;;;11.00;99.90;;;10.34;80.27;100854.22;4989274;28;20041;-55
2021/05/28 03:30:22;;;;;;;0.85;0.10;;;10.90;99.90;;;10.39;79.96;100852.03;4989108;28;20026;-57
2021/05/28 03:32:48;;;;;;;0.35;0.00;;;11.00;99.90;;;10.48;79.48;100855.59;4989096;28;20133;-57
2021/05/28 03:35:15;;;;;;;5.38;0.10;;;11.00;99.90;;;10.74;77.36;100856.72;4989013;28;20113;-53
2021/05/28 03:37:41;;;;;;;2.90;0.10;;;11.20;99.90;;;10.67;77.75;100850.41;4988910;28;20054;-58
2021/05/28 03:40:10;;;;;;;0.40;0.05;;;11.30;99.90;;;10.62;78.14;100857.81;4971586;28;20493;-58
2021/05/28 03:42:36;;;;;;;2.25;0.10;;;11.20;99.90;;;10.64;77.67;100858.50;4989107;28;20178;-55
2021/05/28 03:45:04;;;;;;;1.13;0.30;;;11.20;99.90;;;10.68;77.30;100849.47;4988965;28;20031;-54
2021/05/28 03:47:31;;;;;;;0.55;0.15;;;11.20;99.90;;;10.76;76.64;100859.22;4988799;28;20101;-56
2021/05/28 03:49:57;;;;;;;1.33;0.10;;;11.30;99.90;;;10.84;76.21;100852.34;4988701;28;20355;-57
2021/05/28 03:52:23;;;;;;;0.20;0.10;;;11.40;99.90;;;10.94;75.86;100847.13;4988966;28;20113;-57
2021/05/28 03:54:49;;;;;;;1.13;0.10;;;11.50;99.90;;;11.00;75.63;100857.00;4988867;28;20458;-56
2021/05/28 03:57:14;;;;;;;0.30;0.00;;;11.50;99.90;;;11.13;75.28;100852.34;4988703;28;20030;-56
2021/05/28 03:59:40;;;;;;;3.92;0.10;;;11.60;99.90;;;11.21;74.69;100855.06;4988646;28;20031;-52
2021/05/28 04:02:06;;;;;;;2.78;0.10;;;11.70;99.90;;;11.30;74.70;100858.63;4987897;28;20035;-58
2021/05/28 04:04:33;;;;;;;1.58;0.20;;;11.80;99.90;;;11.39;74.91;100867.38;4988488;28;20029;-57
2021/05/28 04:07:01;;;;;;;0.88;0.20;;;11.90;99.90;;;12.18;73.06;100866.06;4970897;28;20058;-55
2021/05/28 04:09:27;;;;;;;1.63;0.20;;;12.50;99.90;;;13.29;69.76;100864.88;4988622;28;20081;-58
2021/05/28 04:11:53;;;;;;;1.85;0.10;;;13.80;99.90;;;14.71;66.05;100871.25;4988377;28;20097;-53
2021/05/28 04:14:19;;;;;;;0.20;0.10;;;15.50;99.90;;;16.74;60.22;100869.00;4970935;28;20045;-56
2021/05/28 04:16:45;;;;;;;0.73;0.10;;;17.70;98.70;;;17.67;57.33;100878.44;4975750;28;20042;-53
2021/05/28 04:19:11;;;;;;;4.78;0.10;;;19.60;90.50;;;17.97;55.75;100874.81;4994139;28;20042;-56
2021/05/28 04:21:37;;;;;;;0.40;0.13;;;20.50;80.50;;;17.32;57.83;100875.47;4995140;28;20039;-59
2021/05/28 04:24:04;;;;;;;1.33;0.10;;;20.40;77.40;;;17.61;57.22;100865.97;4994847;28;20046;-59
2021/05/28 04:26:30;;;;;;;0.73;0.10;;;20.30;77.60;;;17.34;57.63;100876.09;4995185;28;20027;-58
2021/05/28 04:28:55;;;;;;;0.57;0.10;;;20.30;75.50;;;17.67;56.42;100881.09;4994899;28;20053;-56
2021/05/28 04:31:22;;;;;;;0.40;0.10;;;20.30;74.40;;;18.05;54.36;100882.63;4994752;28;20066;-57
2021/05/28 04:33:47;;;;;;;0.57;0.10;;;20.80;72.40;;;18.16;54.78;100884.78;4994902;28;20041;-58
2021/05/28 04:36:13;;;;;;;0.40;0.00;;;21.10;71.40;;;18.81;52.20;100891.03;4995122;28;20034;-54
2021/05/28 04:38:39;;;;;;;0.82;0.10;;;21.80;67.00;;;18.88;52.04;100890.09;4995029;28;20116;-59
2021/05/28 04:41:05;;;;;;;2.85;0.10;;;22.00;65.90;;;18.85;52.24;100885.19;4994745;28;20042;-59
2021/05/28 04:43:31;;;;;;;2.40;0.10;;;22.20;64.50;;;18.98;51.81;100887.13;4994738;28;20093;-59
2021/05/28 04:45:57;;;;;;;1.10;0.10;;;22.20;64.10;;;19.80;49.60;100887.41;4994758;28;20042;-57
2021/05/28 04:48:23;;;;;;;0.73;0.08;;;22.90;62.30;;;19.47;49.95;100887.13;4994423;28;20389;-59
2021/05/28 04:50:49;;;;;;;2.10;0.20;;;23.10;60.40;;;20.87;47.35;100892.88;4994935;28;20341;-63
2021/05/28 04:53:15;;;;;;;1.08;0.10;;;24.00;59.30;;;20.90;46.09;100894.31;4994609;28;20493;-58
2021/05/28 04:55:41;;;;;;;2.85;0.10;;;24.90;55.90;;;20.84;47.27;100895.13;4994730;28;20061;-60
2021/05/28 04:58:07;;;;;;;1.40;0.10;;;24.90;55.70;;;21.80;44.69;100895.53;4994656;28;20520;-60
2021/05/28 05:00:33;;;;;;;2.05;0.10;;;25.30;54.80;;;21.97;44.47;100902.00;4994666;28;20074;-56
2021/05/28 05:02:59;;;;;;;3.80;0.10;;;25.70;53.70;;;22.26;43.37;100900.72;4994497;28;20034;-56
2021/05/28 05:05:26;;;;;;;0.20;0.10;;;25.90;52.40;;;22.83;42.14;100896.34;4994968;28;20041;-55
2021/05/28 05:07:52;;;;;;;0.85;0.10;;;26.10;52.50;;;23.26;41.47;100903.59;4976974;28;20037;-59
2021/05/28 05:10:18;;;;;;;1.15;0.10;;;26.50;52.00;;;23.49;41.26;100903.81;4994848;28;20026;-60
2021/05/28 05:12:44;;;;;;;0.80;0.10;;;27.40;50.30;;;23.06;41.61;100909.09;4994723;28;20073;-52
2021/05/28 05:15:11;;;;;;;0.32;0.10;;;27.50;49.20;;;24.08;39.97;100908.56;4976999;28;20127;-57
2021/05/28 05:17:38;;;;;;;1.33;0.10;;;28.20;47.70;;;23.77;39.88;100914.00;4994370;28;20162;-57
2021/05/28 05:20:06;;;;;;;0.32;0.08;;;28.50;47.10;;;24.37;39.16;100900.84;4994464;28;20042;-58
2021/05/28 05:22:32;;;;;;;0.30;0.10;;;28.40;46.90;;;23.72;39.34;100903.19;4976741;28;20046;-62
2021/05/28 05:24:58;;;;;;;0.75;0.10;;;28.00;45.80;;;24.55;37.82;100902.66;4994468;28;20031;-58
2021/05/28 05:27:24;;;;;;;2.17;0.10;;;28.30;46.50;;;24.72;37.65;100903.63;4992982;28;20557;-59
2021/05/28 05:29:50;;;;;;;0.22;0.03;;;29.20;45.30;;;24.59;36.68;100906.47;4991315;28;20096;-58
2021/05/28 05:32:16;;;;;;;1.45;0.08;;;29.10;44.10;;;24.76;36.87;100908.28;4973821;28;20418;-58
2021/05/28 05:34:42;;;;;;;0.93;0.13;;;28.80;44.80;;;25.46;35.99;100911.09;4991090;28;20176;-60
2021/05/28 05:37:08;;;;;;;0.20;0.00;;;29.70;44.10;;;25.03;36.13;100906.09;4991210;28;20034;-51
2021/05/28 05:39:34;;;;;;;0.40;0.17;;;29.90;43.00;;;25.04;36.20;100905.03;4991072;28;20034;-54
2021/05/28 05:42:01;;;;;;;0.30;0.10;;;29.40;43.00;;;25.56;35.74;100913.16;4991050;28;20363;-59
2021/05/28 05:44:28;;;;;;;0.28;0.10;;;29.90;43.40;;;25.05;36.54;100917.31;4990976;28;20346;-58
2021/05/28 05:46:54;;;;;;;0.50;0.17;;;30.00;42.50;;;25.32;36.32;100916.88;4973396;28;20390;-57
2021/05/28 05:49:20;;;;;;;2.50;0.20;;;29.90;43.00;;;25.33;35.40;100926.50;4990902;28;20472;-55
2021/05/28 05:51:46;;;;;;;1.58;0.10;;;30.00;41.90;;;23.89;37.46;100928.19;4990802;28;20122;-56
2021/05/28 05:54:12;;;;;;;0.52;0.10;;;29.10;42.70;;;24.87;36.25;100928.03;4991169;28;20502;-57
2021/05/28 05:56:38;;;;;;;0.13;0.00;;;29.50;42.80;;;24.48;36.70;100932.06;4991320;28;20173;-55
2021/05/28 05:59:04;;;;;;;1.95;0.00;;;29.10;43.20;;;24.70;36.36;100932.34;4990745;28;20038;-56
2021/05/28 06:01:33;;;;;;;0.85;0.10;;;28.80;43.50;;;25.23;35.59;100928.94;4991330;28;20042;-52
2021/05/28 06:04:00;;;;;;;0.93;0.10;;;29.60;42.80;;;25.24;35.09;100931.38;4990854;28;20044;-53
2021/05/28 06:06:26;;;;;;;1.48;0.10;;;29.60;42.00;;;25.57;35.13;100930.00;4968322;28;20488;-59
2021/05/28 06:08:53;;;;;;;0.40;0.10;;;29.90;42.20;;;25.84;34.94;100935.72;4947897;28;20189;-60
2021/05/28 06:11:20;;;;;;;1.65;0.20;;;30.10;42.30;;;26.03;34.51;100935.31;4963261;23;20051;-57
2021/05/28 06:13:46;;;;;;;1.45;0.10;;;30.60;41.50;;;26.32;33.97;100925.53;4951497;29;20031;-56
2021/05/28 06:16:13;;;;;;;0.22;0.05;;;30.90;41.20;;;26.72;33.06;100933.50;4951814;29;20028;-59
2021/05/28 06:18:38;;;;;;;0.40;0.10;;;31.30;40.70;;;26.85;32.98;100942.28;4951360;29;20636;-58
2021/05/28 06:21:08;;;;;;;2.88;0.10;;;32.00;39.50;;;27.62;31.75;100937.16;4951604;29;20143;-56
2021/05/28 06:23:34;;;;;;;0.20;0.03;;;32.60;39.30;;;27.55;31.86;100937.28;4951844;29;20042;-61
2021/05/28 06:26:00;;;;;;;0.25;0.10;;;32.50;39.50;;;27.43;31.94;100940.03;4952140;29;20027;-55
2021/05/28 06:28:27;;;;;;;1.92;0.05;;;32.40;39.20;;;27.50;31.85;100942.56;4951506;29;20038;-53
2021/05/28 06:30:54;;;;;;;0.93;0.10;;;32.80;38.80;;;26.64;32.99;100941.09;4949023;29;20035;-58
2021/05/28 06:33:20;;;;;;;0.35;0.10;;;32.20;38.60;;;26.98;33.14;100944.66;4941002;29;20047;-59
2021/05/28 06:35:46;;;;;;;0.40;0.10;;;32.20;39.20;;;27.35;32.11;100943.16;4951421;29;20139;-55
2021/05/28 06:38:12;;;;;;;4.22;0.45;;;32.70;38.30;;;27.32;32.72;100945.50;4951172;28;20525;-52
2021/05/28 06:40:39;;;;;;;2.38;0.25;;;32.60;38.90;;;27.31;32.61;100949.25;4951613;29;20039;-56
2021/05/28 06:43:06;;;;;;;0.55;0.10;;;33.00;38.60;;;27.26;32.92;100943.81;4951216;29;20517;-53
2021/05/28 06:45:35;;;;;;;0.20;0.10;;;33.00;38.50;;;27.34;32.81;100951.44;4951327;29;20086;-59
2021/05/28 06:48:01;;;;;;;0.50;0.10;;;32.90;38.40;;;27.55;32.63;100953.34;4933892;29;20039;-60
2021/05/28 06:50:31;;;;;;;1.13;0.10;;;33.10;38.10;;;27.66;32.96;100954.34;4951187;29;20027;-61
2021/05/28 06:53:00;;;;;;;0.43;0.10;;;33.00;38.80;;;27.95;32.47;100950.44;4949627;29;20479;-56
2021/05/28 06:55:26;;;;;;;4.65;0.63;;;33.40;38.30;;;28.13;31.70;100943.19;4951136;29;20050;-64
2021/05/28 06:57:53;;;;;;;0.28;0.10;;;33.60;37.70;;;28.16;31.57;100948.03;4951600;29;20039;-60
2021/05/28 07:00:19;;;;;;;0.73;0.20;;;33.80;37.60;;;28.02;31.96;100950.28;4950962;29;20110;-57
2021/05/28 07:02:45;;;;;;;1.55;0.28;;;34.10;37.20;;;28.00;31.67;100939.00;4949721;29;20042;-63
2021/05/28 07:05:12;;;;;;;0.57;0.10;;;34.00;37.00;;;27.84;31.90;100946.03;4950946;29;20042;-59
2021/05/28 07:07:38;;;;;;;0.75;0.10;;;33.60;37.30;;;27.92;31.47;100958.16;4950504;29;20035;-58
2021/05/28 07:10:04;;;;;;;0.45;0.10;;;33.80;37.00;;;27.86;30.96;100953.81;4950634;29;20043;-60
2021/05/28 07:12:30;;;;;;;1.33;0.10;;;33.80;36.50;;;27.20;30.79;100953.59;4950872;29;20126;-61
2021/05/28 07:14:56;;;;;;;2.15;0.10;;;32.60;37.30;;;25.92;32.15;100954.03;4950608;29;20111;-55
2021/05/28 07:17:23;;;;;;;0.90;0.10;;;29.70;40.50;;;24.09;34.94;100950.09;4950314;29;20039;-55
2021/05/28 07:19:49;;;;;;;1.15;0.20;;;26.70;44.00;;;23.35;36.92;100964.25;4950657;29;20042;-55
2021/05/28 07:22:15;;;;;;;0.40;0.10;;;25.10;47.10;;;22.92;36.74;100955.38;4950521;29;20035;-51
2021/05/28 07:24:41;;;;;;;0.50;0.00;;;24.20;47.90;;;22.84;36.07;100967.06;4950334;29;20479;-60
2021/05/28 07:27:08;;;;;;;0.20;0.10;;;23.80;48.00;;;22.39;37.11;100959.06;4950245;29;20510;-58
2021/05/28 07:29:35;;;;;;;0.68;0.08;;;23.40;48.60;;;22.19;37.59;100953.03;4932893;29;20054;-63
2021/05/28 07:32:01;;;;;;;0.77;0.30;;;23.00;49.00;;;22.27;37.63;100951.94;4950260;29;20035;-56
2021/05/28 07:34:27;;;;;;;0.00;0.00;;;23.00;49.70;;;21.89;37.47;100951.81;4950444;29;20039;-55
2021/05/28 07:36:53;;;;;;;0.30;0.10;;;22.70;49.10;;;21.80;36.98;100951.22;4950124;29;20035;-58
2021/05/28 07:39:20;;;;;;;0.85;0.00;;;22.40;48.80;;;21.87;37.36;100954.69;4950059;29;20038;-61
2021/05/28 07:41:46;;;;;;;1.17;0.00;;;22.40;50.10;;;21.89;37.13;100957.94;4950106;29;20039;-56
2021/05/28 07:44:12;;;;;;;1.35;0.00;;;22.50;49.60;;;21.84;37.75;100949.78;4950303;29;20390;-58
2021/05/28 07:46:44;;;;;;;1.75;0.00;;;22.40;50.10;;;21.85;36.87;100946.94;4950023;29;20043;-52
2021/05/28 07:49:12;;;;;;;0.65;0.05;;;22.40;49.50;;;21.79;37.67;100953.06;4965705;28;20084;-59
2021/05/28 07:51:38;;;;;;;0.10;0.00;;;22.30;50.30;;;21.91;36.91;100941.81;4968626;28;20046;-57
2021/05/28 07:54:05;;;;;;;0.90;0.00;;;22.40;49.40;;;21.70;36.80;100945.53;4969337;28;20035;-55
2021/05/28 07:56:33;;;;;;;0.13;0.00;;;22.30;49.30;;;21.37;37.83;100937.59;4951617;28;20125;-59
2021/05/28 07:59:00;;;;;;;0.10;0.00;;;22.00;50.30;;;21.55;37.79;100943.09;4969031;28;20093;-51
2021/05/28 08:01:28;;;;;;;0.20;0.00;;;21.90;50.80;;;22.12;37.48;100936.31;4969075;28;20161;-57
2021/05/28 08:03:56;;;;;;;0.20;0.00;;;22.30;50.90;;;22.12;35.97;100938.97;4969510;28;20094;-59
2021/05/28 08:06:23;;;;;;;1.10;0.00;;;22.40;49.40;;;22.14;36.14;100932.41;4951523;28;20467;-61
2021/05/28 08:08:49;;;;;;;0.80;0.00;;;22.40;49.70;;;22.17;36.47;100945.28;4969157;28;20039;-57
2021/05/28 08:11:15;;;;;;;0.17;0.00;;;22.50;49.70;;;21.93;36.78;100942.44;4968789;28;20058;-55
2021/05/28 08:13:41;;;;;;;1.33;0.00;;;22.40;49.50;;;22.17;36.63;100936.50;4969060;28;20170;-57
2021/05/28 08:16:08;;;;;;;0.95;0.00;;;22.50;50.10;;;22.43;37.44;100949.66;4968980;28;20047;-60
2021/05/28 08:18:34;;;;;;;0.75;0.00;;;22.60;51.20;;;22.46;36.69;100937.81;4968693;28;20039;-54
2021/05/28 08:21:02;;;;;;;1.55;0.08;;;22.90;50.00;;;22.56;36.83;100942.66;4968873;28;20051;-56
2021/05/28 08:23:28;;;;;;;0.63;0.10;;;23.00;50.00;;;22.44;37.50;100940.66;4951334;28;20442;-59
2021/05/28 08:25:53;;;;;;;1.98;0.10;;;22.90;50.70;;;22.12;38.73;100942.44;4968952;28;20042;-58
2021/05/28 08:28:20;;;;;;;0.22;0.00;;;22.60;51.80;;;22.09;37.81;100937.53;4968803;28;20030;-56
2021/05/28 08:30:47;;;;;;;2.28;0.05;;;22.70;50.90;;;21.68;38.51;100935.16;4968991;28;20039;-60
2021/05/28 08:33:15;;;;;;;0.40;0.10;;;22.30;51.50;;;21.73;38.49;100937.19;4968669;28;20270;-61
2021/05/28 08:35:41;;;;;;;0.15;0.00;;;22.20;51.90;;;21.81;38.50;100935.09;4968743;28;20636;-61
2021/05/28 08:38:08;;;;;;;1.73;0.08;;;22.30;51.90;;;22.18;38.20;100933.63;4968832;28;20038;-55
2021/05/28 08:40:34;;;;;;;0.43;0.03;;;22.50;52.20;;;22.13;37.49;100928.13;4968728;28;20054;-59
2021/05/28 08:43:06;;;;;;;0.52;0.00;;;22.50;51.10;;;22.14;36.58;100927.09;4969313;28;20053;-52
2021/05/28 08:45:44;;;;;;;0.10;0.00;;;22.50;50.20;;;21.93;36.48;100932.63;4935544;28;20516;-61
2021/05/28 08:48:16;;;;;;;0.82;0.00;;;22.40;49.90;;;21.79;37.36;100928.38;4968753;28;20485;-56
2021/05/28 08:50:46;;;;;;;0.20;0.00;;;22.30;50.40;;;21.98;37.16;100932.00;4968756;28;20041;-63
2021/05/28 08:53:14;;;;;;;2.80;0.10;;;22.30;50.50;;;22.04;36.94;100926.72;4968884;28;20486;-58
2021/05/28 08:55:42;;;;;;;0.25;0.00;;;22.40;50.20;;;22.04;36.31;100923.25;4968651;28;20372;-60
2021/05/28 08:58:12;;;;;;;0.20;0.00;;;22.40;50.00;;;22.43;35.63;100928.41;4918498;28;20042;-57
2021/05/28 09:00:39;;;;;;;1.42;0.10;;;22.60;49.40;;;23.12;34.58;100927.66;4946226;28;20635;-55
2021/05/28 09:03:27;;;;;;;1.35;0.10;;;23.10;49.30;;;23.12;33.40;100926.81;4938798;28;20046;-61
2021/05/28 09:06:03;;;;;;;2.63;0.10;;;23.40;48.00;;;23.29;34.49;100917.25;4953133;29;20035;-65
2021/05/28 09:08:35;;;;;;;0.52;0.00;;;23.50;48.20;;;23.70;34.00;100923.88;4943487;29;20475;-63
2021/05/28 09:11:08;;;;;;;1.38;0.10;;;23.90;48.10;;;23.48;33.40;100926.13;4952288;29;20059;-60
2021/05/28 09:13:46;;;;;;;0.08;0.00;;;23.80;47.40;;;23.11;32.38;100928.66;4953054;29;20054;-58
2021/05/28 09:16:27;;;;;;;0.95;0.00;;;23.70;46.70;;;22.87;33.39;100918.81;4935522;29;20031;-59
2021/05/28 09:18:57;;;;;;;0.85;0.65;;;23.30;46.70;;;22.52;33.90;100916.53;4934353;28;20039;-54
2021/05/28 09:21:41;;;;;;;1.65;0.00;;;23.10;47.00;;;22.48;35.06;100919.81;4956086;28;20096;-61
2021/05/28 09:24:24;;;;;;;1.10;0.10;;;22.90;48.40;;;22.93;35.13;100914.47;4950580;29;20118;-54
2021/05/28 09:26:50;;;;;;;0.17;0.00;;;23.10;49.50;;;23.20;34.75;100912.44;4952865;29;20062;-52
2021/05/28 09:29:16;;;;;;;0.93;0.00;;;23.40;48.70;;;23.64;34.30;100906.13;4952466;29;20491;-59
2021/05/28 09:31:42;;;;;;;0.10;0.00;;;23.70;48.90;;;23.99;34.62;100911.72;4952528;29;20036;-54
2021/05/28 09:34:08;;;;;;;0.10;0.00;;;24.00;49.10;;;24.31;34.41;100912.38;4952106;29;20519;-57
2021/05/28 09:36:36;;;;;;;0.40;0.00;;;24.40;49.00;;;24.59;34.54;100912.63;4952119;29;20070;-60
2021/05/28 09:39:11;;;;;;;0.20;0.00;;;24.60;48.90;;;24.55;33.66;100910.66;4951140;29;20043;-61
2021/05/28 09:41:45;;;;;;;0.47;0.00;;;24.80;48.00;;;24.61;34.16;100904.41;4950730;29;20047;-51
2021/05/28 09:44:17;;;;;;;0.17;0.00;;;24.90;48.20;;;24.71;33.93;100905.50;4934766;29;20459;-62
2021/05/28 09:47:15;;;;;;;1.25;0.00;;;25.10;48.30;;;24.39;33.73;100898.78;4952177;29;20042;-54
2021/05/28 09:49:45;;;;;;;0.20;0.10;;;24.80;47.90;;;24.65;33.79;100903.72;4949719;29;20106;-56
2021/05/28 09:52:19;;;;;;;0.57;0.00;;;24.80;48.40;;;24.69;33.51;100896.91;4951317;29;20070;-62
2021/05/28 09:54:56;;;;;;;0.47;0.00;;;24.90;48.00;;;24.80;33.21;100901.47;4952166;29;20510;-55
2021/05/28 09:57:57;;;;;;;0.10;0.00;;;25.00;47.80;;;24.70;32.48;100903.88;4949868;29;20089;-60
2021/05/28 10:00:25;;;;;;;0.63;0.00;;;25.10;46.60;;;24.76;33.15;100904.81;4901412;29;20138;-56
2021/05/28 10:03:10;;;;;;;3.30;0.10;;;25.10;47.50;;;24.81;32.86;100899.63;4932398;29;20199;-50
2021/05/28 10:05:40;;;;;;;1.70;0.00;;;25.00;47.70;;;24.91;32.37;100901.72;4949100;29;20127;-58
2021/05/28 10:08:08;;;;;;;0.82;0.00;;;25.10;46.50;;;24.93;32.34;100894.31;4951272;29;20306;-54
2021/05/28 10:10:36;;;;;;;0.32;0.08;;;25.20;46.70;;;24.78;32.21;100902.72;4950046;29;20047;-59
2021/05/28 10:13:10;;;;;;;0.20;0.00;;;25.10;46.30;;;24.97;32.05;100898.19;4963923;28;20077;-54
2021/05/28 10:15:55;;;;;;;0.28;0.00;;;25.20;46.30;;;24.98;30.87;100899.81;4942873;29;20124;-61
2021/05/28 10:18:22;;;;;;;0.17;0.00;;;25.30;46.10;;;24.15;32.38;100890.63;4938084;29;20031;-57